donderdag 17 oktober 2019 | Home | Bestenlijsten | Bestenlijsten NL | Calculators | Nieuws | Records | Uitslagen | Videos | Wedstrijden | VZA Ranglijsten | Weer |
 
Recent nieuws meer nieuws
09-10: Tim Pleijte beste in Zeeuws onderonsje in 17e Kustmarathon
07-10: Zeeuws veldloopseizoen van start op Stelleplas
03-10: Hardlopen als een dressuurpaard
23-09: Veldloopbijeenkomst
13-09: Buuten Lope? Hoe mooi is Walcheren?
06-09: MRT training in de praktijk
Wedstrijdagenda meer wedstrijden
za 19-10: Hulsterloo Loop Nieuw-Namen
za 19-10: 58e Singelloop Middelburg
zo 20-10: 44e Amsterdam Marathon
za 26-10: Piet Spruit Memorial Loop Sluiskil
za 26-10: 8e Stelleplascross Heinkenszand
zo 27-10: 37e Marathon Brabant Etten-Leur
za 02-11: Appelloop Axel
za 02-11: 34e Moerschanscross Hulst
za 09-11: Jeff Thuy Memorial Heikant
za 09-11: 52e Mosselloop Westenschouwen
zo 10-11: Natuurloop Retranchement
za 16-11: Juul Van De Walleloop Kieldrecht
za 16-11: 19e Hobbeldebobbelloop Zoutelande
zo 17-11: 36e Zevenheuvelenloop Nijmegen
Recente uitslagen meer uitslagen
za 05-10: Clingse Bosloop Clinge
za 05-10: 17e Kustmarathon Zoutelande
za 28-09: Ten Miles Philippine (70)
za 28-09: 16e Tielemanloop Middelharnis
zo 22-09: 2e Vaart van Vlissingen (151)
za 21-09: Halve Marathon van Tholen (164)
za 21-09: Bamisrun Kloosterzande (101)
vr 20-09: Wemeldingeloop (87)
zo 15-09: Dwars Door De Zwingeul Cadzand-Bad (90)
za 14-09: 6e d'Ossekoppenloop Ossenisse (103)
vr 13-09: 24e Stadsloop Goes (204)
za 07-09: 13e Kustloop Vrouwenpolder (502)
za 07-09: Bosse Pielenloop Vogelwaarde (52)
 
Zoek tenminste met 3 tekens van wedstrijd, datum, plaats of atleet

Clingse Bosloop

Kapellebrug, zaterdag 7 oktober 2017 - Organisatie: RKHAV
7.5 km
PltsNaam
Tijdkm/umin/kmm/secgap
1  Sander d'HontKuitaart26.46minMse   16.812  3:344.67-
2  Liam de MeyRKHAV27.01minM35   16.656  3:364.63+0:15
3  Sander PostTerneuzen27.14minMse   16.524  3:384.59+0:28
4  Andy Slock?28.10minMse   15.976  3:454.44+1:24
5  Michiel LelieSint-Gillis-Waas28.39minMse   15.707  3:494.36+1:53
6  Gino van BroeckTemse29.38minMse   15.186  3:574.22+2:52
7  Erik CapponZuidzande29.51minM50   15.075  3:594.19+3:05
8  Frank van den BrandenSint Jansteen30.20minM55   14.835  4:034.12+3:34
9  Dennis VlassenroodSint Jansteen30.31minMse   14.746  4:044.10+3:45
10  Hillaert WarrensMoerbeke30.43minMse   14.650  4:064.07+3:57
11  Jordy LeenknechtHulst30.49minMse   14.602  4:074.06+4:03
12  Ben van VlietTerneuzen31.24minMse   14.331  4:113.98+4:38
13  Marnix van den BrandeClinge31.56minMse   14.092  4:153.91+5:10
14  Ronald GeertseSerooskerke32.12minMse   13.975  4:183.88+5:26
15  Jan SantensDestelbergen32.27minMse   13.867  4:203.85+5:41
16  Frank SmitsHulst32.30minMse   13.846  4:203.85+5:44
17  Cathy PoppeTerneuzen33.25minV35   13.466  4:273.74+6:39
18  Erik BollemanAxel33.31minM45   13.426  4:283.73+6:45
19  Niek WielandAxel33.49minM40   13.307  4:313.70+7:03
20  Menno den DekkerTerneuzen33.54minMse   13.274  4:313.69+7:08
21  John CompietHulst34.35minMse   13.012  4:373.61+7:49
22  Stijn de Vos?35.21minMse   12.730  4:433.54+8:35
23  Stijn AdriaansenKieldrecht35.31minMse   12.670  4:443.52+8:45
24  Stefan de VentClinge35.33minMse   12.658  4:443.52+8:47
25  Romain GeleynSint-Gillis-Waas35.35minMse   12.646  4:453.51+8:49
26  Arjan LambertVogelwaarde35.37minMse   12.635  4:453.51+8:51
27  Elyas DillisSint Jansteen35.44minMse   12.593  4:463.50+8:58
28  Frans VerwilligenHulst36.02minMse   12.488  4:483.47+9:16
29  Paul HaertjesnsBoekhoute36.05minMse   12.471  4:493.46+9:19
30  Berry KnibbelerWestdorpe36.08minM55   12.454  4:493.46+9:22
31  Johnny DoomsTerneuzen36.15minM60   12.414  4:503.45+9:29
32  Renate van HuffelSint Jansteen36.20minVse   12.385  4:513.44+9:34
33  Ronny SmetSinaai36.23minMse   12.368  4:513.44+9:37
34  David LeenknegtNieuw-Namen36.41minMse   12.267  4:533.41+9:55
35  Age BattHulst36.48minMse   12.228  4:543.40+10:02
36  Martin BurmKloosterzande37.23minMse   12.037  4:593.34+10:37
37  Mark WillaertHulst37.26minMse   12.021  4:593.34+10:40
38  Marleen AckermanDestelbergen37.28minVse   12.011  5:003.34+10:42
39  Johny MarimanClinge37.51minMse   11.889  5:033.30+11:05
40  Monique AllefsHulst38.07minV50   11.806  5:053.28+11:21
41  Alex van LeuvenSint Jansteen38.15minMse   11.765  5:063.27+11:29
42  Ivo de WildeClinge38.35minMse   11.663  5:093.24+11:49
43  Wanda ZegersTerneuzen38.38minVse   11.648  5:093.24+11:52
44  Fien LelieSint-Gillis-Waas38.55minVse   11.563  5:113.21+12:09
45  Tommy ValckxHulst39.09minMse   11.494  5:133.19+12:23
46  Jurgen de BlokClinge39.41minMse   11.340  5:173.15+12:55
47  Georges Vonck?40.25minMse   11.134  5:233.09+13:39
48  Joseph MaesSint-Niklaas40.45minMse   11.043  5:263.07+13:59
49  Dieken van NieuwenhuijzenAssenede42.06minMse   10.689  5:372.97+15:20
50  Margo HermansOssenisse43.28minVse   10.353  5:482.88+16:42
51  Coos BuurmaHulst44.25minV55   10.131  5:552.81+17:39
52  Daan DielemanZaamslag45.10minMse   9.963  6:012.77+18:24
53  Ronny den ExterHulst45.22minMse   9.919  6:032.76+18:36
54  Rudi van der VeldeWachtebeke47.12minMse   9.534  6:182.65+20:26
55  Karin den DekkerTerneuzen47.41minVse   9.437  6:212.62+20:55
56  Ilja TollenaarKloosterzande47.53minVse   9.398  6:232.61+21:07
57  Pieter van Es?48.08minMse   9.349  6:252.60+21:22
58  Sarina van Es?48.10minMse   9.343  6:252.60+21:24
59  Mariette van GuchtSinaai48.25minVse   9.294  6:272.58+21:39
60  Nele de LoosClinge50.18minVse   8.946  6:422.49+23:32
61  Kimberley van WaesbergheSint-Pauwels51.44minVse   8.698  6:542.42+24:58
62  Tommy de VosHaasdonck51.46minMse   8.693  6:542.41+25:00
63  Nancy HosteWaasmunster55.41minVse   8.081  7:252.24+28:55
64  Wim CoppietersGrimbergen55.42minMse   8.079  7:262.24+28:56
65  Greta de VylderSint-Gillis-Waas55.43minVse   8.077  7:262.24+28:57
Mannen: 50 (76.92%) => M35=1 - M40=1 - M45=1 - M50=1 - M55=2 - M60=1 - Mse=43
Vrouwen: 15 (23.08%) => V35=1 - V50=1 - V55=1 - Vse=12
3 km
PltsNaam
Tijdkm/umin/kmm/secgap
1  Ronny WagenaerMelsele11.26minMse   15.743  3:494.37-
2  Kris DerveauxOostende11.50minMse   15.211  3:574.23+0:24
3  Paul HaertjensBoekhoute12.22minMse   14.555  4:074.04+0:56
4  Joakim van GasseSint-Pauwels13.05minMse   13.758  4:223.82+1:39
5  Martijn van OsTerhole13.26minMse   13.400  4:293.72+2:00
6  Mats VierbergenHulst13.36minMse   13.235  4:323.68+2:10
7  Johnny DoomsTerneuzen13.58minM65   12.888  4:393.58+2:32
8  Emma van AckerAbsdale14.15minVse   12.632  4:453.51+2:49
9  Michel CambeenVogelwaarde14.18minMse   12.587  4:463.50+2:52
10  Dylan BouwhuizenHulst14.22minMse   12.529  4:473.48+2:56
11  Eva den ExterHulst14.25minVse   12.486  4:483.47+2:59
12  Amy NiemantsverdrietSint Jansteen14.26minVse   12.471  4:493.46+3:00
13  Danny van WaterschootHulst14.42minMse   12.245  4:543.40+3:16
14  Kirsten VierbergenHulst15.12minVse   11.842  5:043.29+3:46
15  Martin NuytenHulst15.23minMse   11.701  5:083.25+3:57
16  Ann den ExterHulst15.56minVse   11.297  5:193.14+4:30
17  Remco PoppeClinge16.01minMse   11.238  5:203.12+4:35
18  Jane van der VloetHulst16.47minVse   10.725  5:362.98+5:21
19  Nelly PlasschaertHulst17.06minVse   10.526  5:422.92+5:40
20  Marian van VoorenTerneuzen17.22minVse   10.365  5:472.88+5:56
21  Ko ManRupelmonde23.31minMse   7.654  7:502.13+12:05
22  Ilse de SchrijverBeveren23.33minVse   7.643  7:512.12+12:07
Mannen: 13 (59.09%) => M65=1 - Mse=12
Vrouwen: 9 (40.91%) => Vse=9

Snelheid en tempo zijn berekend op de vermelde afstand. Bij een onjuiste afstand wijken deze uiteraard af!

Fouten melden via info@atletiekzeeland.nl Categorie fout? Mail dan geboortedatum. (geldt alleen voor Zeeuwen)

De server had 0.094 seconden nodig om deze lijst met 87 prestaties samen te stellen.

Terug naar boven


 
Laatste reactie:
Jan Roose: Zeeuws Veldloopseizoen Van Sta..
Recente Zeeuwse prestaties meer prestaties
14-10: Kermisloop Putte (4)
5 km Crum van der Linden (PR)17.07  Mse
5 km Hein van Uffelen (PR)20.22  Mse
5 km Emma van Mourik (PR)21.44  Vse
5 km Laurens Meeuwsen (PR 21.38)22.46  M55
13-10: Rondje Seppe Bosschenhoofd (5)
15 km Lion Baas (PR)1.00.39  M40
10 km Ferry Engel (PR 37.05)40.35  M55
10 km Andre Meijers (PR 42.14)43.38  M45
10 km Jacqueline Meijers (PR 54.04)56.44  V45
5 km Jaco Rip (PR 19.32)20.58  M40
13-10: Marathon Chicago (1)
marath Marlon Roels (PR)3.01.41  M45
13-10: 36e Marathon Eindhoven  (13)
13-10: 4 Mijl van Groningen  (2)
Vier M Tim van den Broeke (debuut)18.58  Mse
Vier M Marijke de Visser (PR)21.34  Vse
13-10: Marathon Köln  (2)
marath Fred van Es (PR)3.15.26  M50
marath Marcel van Delden (PR 3.19.18)3.40.29  M50
06-10: 34e Singelloop Breda  (35)
06-10: Loch Ness Marathon Inverness (5)
marath Emiel Flipse (PR 2.58.48)3.00.43  Mse
marath Anthony van den Berg (PR)3.16.52  M50
marath Jael van den Oever (PR)3.35.11  V40
marath Marko Verkaart (PR 3.44.41)3.52.50  M40
marath Nelleke Bosscha (PR 3.40.16)4.13.05  Vse
06-10: Marathon Perth (1)
marath Ingrid IJsebaert (PR 3.10.27)3.40.21  V50
06-10: Singelloop Utrecht (3)
10 km Floris Willeboordse (PR)31.08  Mse
10 km Ad Sluijter (PR)32.34  M35
10 km Marijke de Visser (PR)35.01  Vse
28-09: Halve van Katwijk  (2)
22-09: 35e Dam tot Damloop Amsterdam (1)
22-09: Berenloop Beernem (10)
20-09: Track Meeting Wageningen (2)
15-09: 40e Bikse Natuurmarathon Hilvarenbeek (6)
15-09: Door Dik en Dun Steenbergen (4)
14-09: 44e Run Winschoten  (1)
08-09: Marathon Munster (1)
08-09: Halve Marathon Oostland Pijnacker (1)
08-09: Quikrun Roosendaal (6)
07-09: Halve Marathon Evergem (11)
07-09: Kramp Run Varsseveld (1)
03-09: Baanwedstrijd Vlissingen (11)
01-09: 31e Tilburg Ten Miles  (29)
30-08: Track Meeting Utrecht (5)
29-08: Seuterloop s-Gravendeel (1)
24-08: Allonsius Sport Meeting Huizingen (1)
22-08: Baanwedstrijd Rotterdam (2)
Atletiek Zeeland © 2019